松山國際航空站 - ATIS

METAR RCSS 311000Z 31006KT 280V360 9999 -DZ FEW008 FEW015TCU BKN033 29/25 Q1010 NOSIG RMK TCU S A2983(Y)=

站台狀態:Offline
最後更新:2020-05-31 18:00:02